Time;durP1;ratioP1;P1;durP2;ratioP2;P2;SDS_P1;SDS_P2;PMS_P1;PMS_P2;Temp;Humidity;BMP_temperature;BMP_pressure;BME280_temperature;BME280_humidity;BME280_pressure;Samples;Min_cycle;Max_cycle;Signal;HPM_P1;HPM_P2
2022/04/29 00:00:38;;;;;;;13.57;6.28;;;23.70;39.40;;;;;;6280813;27;80566;-61
2022/04/29 00:03:39;;;;;;;10.07;6.53;;;23.70;39.90;;;;;;6284324;27;80262;-61
2022/04/29 00:06:39;;;;;;;11.85;6.18;;;23.60;39.70;;;;;;6286001;27;81309;-61
2022/04/29 00:09:40;;;;;;;13.30;6.70;;;23.60;39.50;;;;;;6286661;27;80793;-61
2022/04/29 00:12:41;;;;;;;12.93;7.53;;;23.60;39.50;;;;;;6272232;27;81686;-61
2022/04/29 00:15:41;;;;;;;10.73;5.68;;;23.60;39.50;;;;;;6261062;27;80371;-61
2022/04/29 00:18:42;;;;;;;10.40;6.03;;;23.60;40.20;;;;;;6261245;27;80474;-61
2022/04/29 00:21:43;;;;;;;7.43;4.93;;;23.70;40.20;;;;;;6261006;27;80843;-62
2022/04/29 00:24:43;;;;;;;12.20;5.80;;;23.70;40.20;;;;;;6261000;27;80713;-62
2022/04/29 00:27:44;;;;;;;12.43;7.03;;;23.70;40.20;;;;;;6271553;27;80333;-61
2022/04/29 00:30:45;;;;;;;10.02;5.53;;;23.70;40.70;;;;;;6262045;27;82179;-62
2022/04/29 00:33:46;;;;;;;11.15;6.32;;;23.60;40.50;;;;;;6260287;27;80212;-62
2022/04/29 00:36:46;;;;;;;12.15;6.70;;;23.60;40.60;;;;;;6269466;27;80361;-62
2022/04/29 00:39:47;;;;;;;11.85;6.40;;;23.60;40.50;;;;;;6286209;27;80471;-61
2022/04/29 00:42:47;;;;;;;16.15;7.10;;;23.60;40.50;;;;;;6279210;27;81965;-62
2022/04/29 00:45:48;;;;;;;12.30;6.68;;;23.60;40.30;;;;;;6260774;27;80708;-61
2022/04/29 00:48:49;;;;;;;14.77;6.38;;;23.60;40.40;;;;;;6264080;27;80679;-61
2022/04/29 00:51:51;;;;;;;11.07;6.30;;;23.60;40.50;;;;;;6260472;27;80739;-62
2022/04/29 00:54:51;;;;;;;9.02;5.85;;;23.60;40.40;;;;;;6260187;27;80787;-61
2022/04/29 00:57:52;;;;;;;13.07;6.95;;;23.60;40.50;;;;;;6260359;27;80502;-62
2022/04/29 01:00:52;;;;;;;9.93;5.53;;;23.60;40.50;;;;;;6260438;27;80695;-62
2022/04/29 01:03:53;;;;;;;10.52;5.93;;;23.60;40.90;;;;;;6274416;27;80840;-61
2022/04/29 01:06:53;;;;;;;8.98;5.40;;;23.60;41.40;;;;;;6280808;27;80325;-61
2022/04/29 01:09:54;;;;;;;14.20;7.28;;;23.60;40.80;;;;;;6261601;27;80101;-61
2022/04/29 01:12:54;;;;;;;12.75;6.85;;;23.60;40.70;;;;;;6261221;27;82160;-62
2022/04/29 01:15:55;;;;;;;11.60;6.35;;;23.60;40.70;;;;;;6260195;27;80697;-62
2022/04/29 01:18:56;;;;;;;13.30;6.97;;;23.60;40.70;;;;;;6270090;27;82527;-62
2022/04/29 01:21:57;;;;;;;12.15;6.40;;;23.60;40.50;;;;;;6285480;27;80665;-62
2022/04/29 01:24:57;;;;;;;14.13;7.43;;;23.60;40.60;;;;;;6276574;27;83429;-61
2022/04/29 01:27:59;;;;;;;13.77;7.20;;;23.60;40.40;;;;;;6278566;27;82083;-61
2022/04/29 01:31:00;;;;;;;12.60;6.72;;;23.60;40.10;;;;;;6258493;27;81783;-62
2022/04/29 01:34:01;;;;;;;12.82;7.13;;;23.60;40.60;;;;;;6276736;27;81387;-62
2022/04/29 01:37:02;;;;;;;8.57;6.05;;;23.60;40.60;;;;;;6283552;27;81840;-62
2022/04/29 01:40:02;;;;;;;10.18;6.32;;;23.60;40.70;;;;;;6275786;27;83307;-62
2022/04/29 01:43:03;;;;;;;15.63;7.55;;;23.60;40.60;;;;;;6284540;27;80399;-62
2022/04/29 01:46:03;;;;;;;12.27;6.78;;;23.60;40.70;;;;;;6282956;27;83138;-61
2022/04/29 01:49:32;;;;;;;13.52;6.53;;;23.60;40.60;;;;;;6270695;27;87665;-61
2022/04/29 01:52:35;;;;;;;11.20;6.03;;;23.60;40.40;;;;;;6259523;27;80484;-61
2022/04/29 01:55:36;;;;;;;12.70;7.22;;;23.60;40.70;;;;;;6249463;27;83250;-61
2022/04/29 01:58:38;;;;;;;12.55;7.05;;;23.60;40.70;;;;;;6243325;27;83550;-61
2022/04/29 02:01:39;;;;;;;13.65;7.57;;;23.60;40.70;;;;;;6284349;27;80962;-62
2022/04/29 02:04:39;;;;;;;10.57;6.30;;;23.60;40.60;;;;;;6274126;27;80235;-61
2022/04/29 02:07:43;;;;;;;14.77;7.20;;;23.60;40.70;;;;;;6267717;27;83347;-61
2022/04/29 02:10:44;;;;;;;12.85;6.72;;;23.50;40.60;;;;;;6256847;27;87729;-61
2022/04/29 02:13:48;;;;;;;14.07;6.82;;;23.60;40.80;;;;;;6258444;27;82559;-61
2022/04/29 02:16:57;;;;;;;12.90;6.65;;;23.50;40.60;;;;;;6282850;27;80518;-61
2022/04/29 02:19:58;;;;;;;11.07;6.78;;;23.50;40.70;;;;;;6264984;27;82364;-62
2022/04/29 02:22:59;;;;;;;13.65;6.95;;;23.50;40.90;;;;;;6265449;27;80548;-63
2022/04/29 02:26:00;;;;;;;12.07;7.45;;;23.50;40.60;;;;;;6256969;27;82940;-62
2022/04/29 02:29:01;;;;;;;14.68;7.28;;;23.50;40.10;;;;;;6265000;27;81421;-61
2022/04/29 02:32:01;;;;;;;13.35;6.72;;;23.50;40.20;;;;;;6240252;27;82793;-61
2022/04/29 02:35:02;;;;;;;14.30;6.85;;;23.50;40.50;;;;;;6264423;27;83147;-62
2022/04/29 02:38:03;;;;;;;13.60;7.43;;;23.50;41.10;;;;;;6256845;27;82452;-61
2022/04/29 02:41:05;;;;;;;11.02;6.88;;;23.50;40.80;;;;;;6257145;27;83079;-62
2022/04/29 02:44:06;;;;;;;11.18;6.28;;;23.50;41.10;;;;;;6258352;27;81437;-62
2022/04/29 02:47:06;;;;;;;9.40;6.25;;;23.50;41.20;;;;;;6256457;27;82735;-62
2022/04/29 02:50:07;;;;;;;10.43;6.45;;;23.50;41.10;;;;;;6266473;27;80218;-62
2022/04/29 02:53:08;;;;;;;11.25;6.35;;;23.50;40.60;;;;;;6281539;27;83370;-61
2022/04/29 02:56:09;;;;;;;13.00;6.53;;;23.50;40.90;;;;;;6268301;27;82968;-62
2022/04/29 02:59:24;;;;;;;13.17;7.20;;;23.50;40.70;;;;;;6262492;27;82239;-62
2022/04/29 03:02:27;;;;;;;10.05;5.82;;;23.50;40.50;;;;;;6281280;27;82865;-62
2022/04/29 03:05:27;;;;;;;12.63;6.90;;;23.50;40.50;;;;;;6267284;27;80486;-62
2022/04/29 03:08:28;;;;;;;11.30;6.60;;;23.50;40.20;;;;;;6285427;27;81637;-61
2022/04/29 03:11:28;;;;;;;12.20;6.72;;;23.50;40.60;;;;;;6285426;27;81646;-61
2022/04/29 03:14:29;;;;;;;11.02;6.82;;;23.50;40.90;;;;;;6287308;27;80455;-61
2022/04/29 03:20:49;;;;;;;14.40;6.85;;;23.50;40.90;;;;;;6280058;27;80931;-62
2022/04/29 03:23:51;;;;;;;11.90;6.65;;;23.50;40.70;;;;;;6260652;27;82871;-61
2022/04/29 03:26:51;;;;;;;11.55;7.28;;;23.50;40.90;;;;;;6262814;27;81341;-63
2022/04/29 03:29:52;;;;;;;10.77;6.30;;;23.50;40.50;;;;;;6266432;27;80383;-63
2022/04/29 03:32:53;;;;;;;13.43;7.65;;;23.50;41.00;;;;;;6271783;27;83352;-62
2022/04/29 03:36:02;;;;;;;14.07;7.82;;;23.50;40.60;;;;;;6263708;27;80581;-62
2022/04/29 03:39:13;;;;;;;12.52;7.22;;;23.50;40.60;;;;;;6268484;27;83201;-63
2022/04/29 03:42:14;;;;;;;12.30;6.88;;;23.50;40.80;;;;;;6261624;27;80341;-62
2022/04/29 03:45:15;;;;;;;13.07;7.43;;;23.50;40.40;;;;;;6277345;27;82724;-61
2022/04/29 03:48:16;;;;;;;14.20;7.97;;;23.50;40.20;;;;;;6263496;27;80976;-62
2022/04/29 03:51:37;;;;;;;14.80;7.50;;;23.50;40.30;;;;;;6269411;27;80433;-62
2022/04/29 03:54:38;;;;;;;13.50;8.05;;;23.50;40.70;;;;;;6284896;27;83205;-62
2022/04/29 03:57:39;;;;;;;22.08;8.15;;;23.50;40.50;;;;;;6268009;27;87994;-62
2022/04/29 04:00:41;;;;;;;17.08;8.10;;;23.50;40.90;;;;;;6281967;27;80535;-61
2022/04/29 04:03:42;;;;;;;12.00;7.63;;;23.50;40.80;;;;;;6260156;27;82412;-62
2022/04/29 04:06:50;;;;;;;13.27;6.85;;;23.50;41.10;;;;;;6265681;27;82186;-62
2022/04/29 04:09:54;;;;;;;13.95;6.97;;;23.50;41.70;;;;;;6263463;27;81519;-61
2022/04/29 04:12:55;;;;;;;19.40;8.52;;;23.50;42.90;;;;;;6275695;27;82118;-62
2022/04/29 04:15:55;;;;;;;13.57;8.20;;;23.60;42.00;;;;;;6286248;27;80179;-62
2022/04/29 04:18:56;;;;;;;12.57;7.43;;;23.50;42.00;;;;;;6284314;27;83498;-62
2022/04/29 04:21:57;;;;;;;15.43;7.72;;;23.50;42.50;;;;;;6263882;27;81205;-62
2022/04/29 04:24:57;;;;;;;14.50;8.00;;;23.50;42.40;;;;;;6258892;27;81980;-64
2022/04/29 04:27:58;;;;;;;11.18;7.20;;;23.50;42.60;;;;;;6272733;27;82835;-62
2022/04/29 04:31:10;;;;;;;13.13;7.93;;;23.50;42.80;;;;;;6260761;27;82274;-62
2022/04/29 04:37:37;;;;;;;14.50;8.48;;;23.60;42.80;;;;;;6258724;27;87669;-61
2022/04/29 04:40:39;;;;;;;17.52;9.10;;;23.60;42.90;;;;;;6258755;27;83844;-62
2022/04/29 04:43:39;;;;;;;15.75;8.27;;;23.60;43.10;;;;;;6275787;27;82821;-62
2022/04/29 04:46:42;;;;;;;15.25;8.65;;;23.60;43.10;;;;;;6270738;27;83775;-62
2022/04/29 04:49:48;;;;;;;16.50;8.48;;;23.60;43.30;;;;;;6259023;27;83550;-64
2022/04/29 04:52:52;;;;;;;16.27;8.15;;;23.60;43.20;;;;;;6281953;27;81794;-61
2022/04/29 04:55:53;;;;;;;14.68;9.20;;;23.70;43.10;;;;;;6270177;27;82897;-65
2022/04/29 04:58:53;;;;;;;15.82;8.77;;;23.70;43.00;;;;;;6283281;27;81365;-64
2022/04/29 05:01:55;;;;;;;13.18;8.55;;;23.70;42.60;;;;;;6273575;27;82674;-68
2022/04/29 05:05:14;;;;;;;16.35;7.85;;;23.70;42.70;;;;;;6266106;27;81080;-68
2022/04/29 05:08:17;;;;;;;16.23;8.75;;;23.80;42.60;;;;;;6280461;27;80488;-68
2022/04/29 05:11:17;;;;;;;15.35;8.35;;;23.70;42.40;;;;;;6271538;27;80442;-62
2022/04/29 05:14:19;;;;;;;19.95;8.85;;;23.70;42.30;;;;;;6272348;27;82394;-66
2022/04/29 05:17:21;;;;;;;14.57;8.45;;;23.70;42.20;;;;;;6254350;27;82785;-63
2022/04/29 05:20:42;;;;;;;24.17;9.40;;;23.70;42.50;;;;;;6284007;27;81129;-63
2022/04/29 05:23:43;;;;;;;20.35;9.70;;;23.70;42.20;;;;;;6282961;27;82705;-70
2022/04/29 05:27:02;;;;;;;23.25;10.15;;;23.80;42.00;;;;;;6281848;27;80300;-65
2022/04/29 05:30:21;;;;;;;14.10;7.82;;;23.70;41.90;;;;;;6263460;27;83763;-65
2022/04/29 05:33:57;;;;;;;17.70;8.40;;;23.70;42.00;;;;;;6240129;28;82994;-65
2022/04/29 05:37:12;;;;;;;18.85;8.82;;;23.70;41.90;;;;;;6270410;27;80788;-63
2022/04/29 05:43:45;;;;;;;20.85;8.88;;;23.70;41.80;;;;;;6257503;27;83131;-63
2022/04/29 05:46:45;;;;;;;19.98;9.57;;;23.70;41.90;;;;;;6256474;27;83699;-62
2022/04/29 05:49:47;;;;;;;21.65;10.05;;;23.70;42.00;;;;;;6257614;27;83401;-63
2022/04/29 05:52:48;;;;;;;23.88;8.68;;;23.70;41.90;;;;;;6271327;27;83195;-63
2022/04/29 05:55:48;;;;;;;26.67;8.82;;;23.70;41.80;;;;;;6258660;27;85401;-63
2022/04/29 05:58:49;;;;;;;20.63;8.35;;;23.70;41.80;;;;;;6262367;27;83347;-63
2022/04/29 06:02:23;;;;;;;19.45;8.60;;;23.80;41.80;;;;;;6269155;27;80250;-63
2022/04/29 06:05:31;;;;;;;20.08;8.98;;;23.80;42.10;;;;;;6260152;27;82677;-63
2022/04/29 06:08:31;;;;;;;16.20;8.15;;;23.80;41.70;;;;;;6280071;27;81517;-63
2022/04/29 06:11:32;;;;;;;18.77;8.65;;;23.90;41.70;;;;;;6240547;28;82796;-63
2022/04/29 06:14:34;;;;;;;20.38;8.63;;;23.90;41.70;;;;;;6266132;27;81408;-64
2022/04/29 06:17:50;;;;;;;13.90;9.03;;;23.90;41.80;;;;;;6256895;27;80155;-63
2022/04/29 06:21:09;;;;;;;19.45;9.15;;;23.90;41.60;;;;;;6258657;27;80734;-63
2022/04/29 06:24:34;;;;;;;16.13;9.77;;;23.90;41.60;;;;;;6264072;27;82787;-68
2022/04/29 06:27:35;;;;;;;18.40;8.88;;;23.90;41.50;;;;;;6282084;27;82123;-69
2022/04/29 06:30:35;;;;;;;19.48;8.93;;;23.90;41.50;;;;;;6265395;27;81509;-68
2022/04/29 06:34:08;;;;;;;17.42;8.45;;;23.90;41.40;;;;;;6244441;27;80565;-69
2022/04/29 06:37:10;;;;;;;18.08;9.07;;;24.00;41.40;;;;;;6256470;28;83215;-61
2022/04/29 06:40:13;;;;;;;15.45;8.85;;;24.00;41.20;;;;;;6266253;27;82972;-64
2022/04/29 06:43:24;;;;;;;21.00;9.32;;;23.90;41.30;;;;;;6277090;27;87525;-60
2022/04/29 06:46:43;;;;;;;17.83;8.77;;;24.00;42.80;;;;;;6258148;27;80781;-61
2022/04/29 06:50:02;;;;;;;19.80;9.18;;;23.90;43.40;;;;;;6258656;27;80573;-66
2022/04/29 06:53:25;;;;;;;19.13;9.18;;;23.90;43.30;;;;;;6256991;27;81576;-62
2022/04/29 06:56:26;;;;;;;14.20;8.23;;;24.00;44.30;;;;;;6255913;27;83206;-62
2022/04/29 06:59:27;;;;;;;15.90;8.85;;;24.00;44.40;;;;;;6258645;27;80443;-65
2022/04/29 07:02:28;;;;;;;15.77;9.30;;;24.00;44.90;;;;;;6281473;27;82857;-65
2022/04/29 07:05:30;;;;;;;16.35;8.50;;;24.00;45.50;;;;;;6272365;27;83499;-63
2022/04/29 07:08:32;;;;;;;18.00;10.13;;;24.00;45.80;;;;;;6255912;27;81641;-62
2022/04/29 07:11:51;;;;;;;18.30;9.38;;;24.00;46.30;;;;;;6254539;27;83052;-65
2022/04/29 07:15:12;;;;;;;19.02;9.13;;;24.00;47.30;;;;;;6257137;27;82913;-62
2022/04/29 07:18:13;;;;;;;18.52;9.60;;;24.00;47.60;;;;;;6264756;27;82242;-62
2022/04/29 07:21:14;;;;;;;25.55;10.43;;;24.00;48.00;;;;;;6254610;27;83431;-62
2022/04/29 07:24:15;;;;;;;19.17;9.52;;;24.00;48.50;;;;;;6252512;27;84511;-66
2022/04/29 07:27:16;;;;;;;22.30;9.88;;;24.00;47.90;;;;;;6276077;27;85267;-62
2022/04/29 07:30:17;;;;;;;15.80;9.52;;;24.10;48.30;;;;;;6280515;27;81573;-67
2022/04/29 07:33:27;;;;;;;19.52;9.73;;;24.10;48.90;;;;;;6256103;27;82926;-67
2022/04/29 07:43:28;;;;;;;26.83;14.68;;;24.20;49.70;;;;;;6257755;27;87657;-61
2022/04/29 07:46:28;;;;;;;29.08;13.23;;;24.30;49.60;;;;;;6264142;27;84146;-61
2022/04/29 07:49:58;;;;;;;34.10;14.85;;;24.40;49.70;;;;;;6252012;27;83322;-61
2022/04/29 07:53:03;;;;;;;23.95;13.13;;;24.40;49.10;;;;;;6256490;27;84326;-61
2022/04/29 07:56:03;;;;;;;20.65;11.50;;;24.40;48.80;;;;;;6267156;27;85694;-61
2022/04/29 07:59:08;;;;;;;22.55;11.13;;;24.40;48.60;;;;;;6281186;27;85994;-61
2022/04/29 08:02:08;;;;;;;21.40;11.57;;;24.50;48.40;;;;;;6269076;27;84735;-61
2022/04/29 08:05:09;;;;;;;23.20;11.88;;;24.50;48.30;;;;;;6283053;27;82992;-61
2022/04/29 08:08:10;;;;;;;18.67;10.85;;;24.60;48.30;;;;;;6260671;27;85456;-61
2022/04/29 08:11:11;;;;;;;23.90;11.77;;;24.60;48.50;;;;;;6255599;27;83392;-61
2022/04/29 08:14:32;;;;;;;24.98;10.68;;;24.60;47.80;;;;;;6251702;27;82939;-73
2022/04/29 08:17:52;;;;;;;22.55;10.60;;;24.60;47.90;;;;;;6272601;27;86055;-63
2022/04/29 08:20:53;;;;;;;22.42;10.23;;;24.60;48.20;;;;;;6265100;27;85889;-63
2022/04/29 08:23:54;;;;;;;18.33;8.60;;;24.60;48.40;;;;;;6255364;27;85376;-62
2022/04/29 08:26:54;;;;;;;20.38;9.93;;;24.50;48.50;;;;;;6266847;27;83065;-63
2022/04/29 08:29:56;;;;;;;14.75;8.55;;;24.50;48.80;;;;;;6265914;27;81847;-63
2022/04/29 08:32:56;;;;;;;13.93;8.00;;;24.60;48.90;;;;;;6264564;27;83627;-62
2022/04/29 08:36:03;;;;;;;17.35;9.73;;;24.60;48.70;;;;;;6263102;27;82149;-61
2022/04/29 08:39:03;;;;;;;17.30;9.18;;;24.60;48.60;;;;;;6262312;27;82687;-64
2022/04/29 08:42:04;;;;;;;17.42;9.15;;;24.60;47.90;;;;;;6275109;27;83230;-64
2022/04/29 08:45:06;;;;;;;14.60;8.13;;;24.50;48.20;;;;;;6263159;27;83201;-64
2022/04/29 08:48:41;;;;;;;19.50;8.87;;;24.60;48.10;;;;;;6261581;27;80988;-63
2022/04/29 08:51:42;;;;;;;16.45;8.27;;;24.60;47.90;;;;;;6259734;27;80349;-64
2022/04/29 09:01:21;;;;;;;15.40;8.35;;;24.60;48.30;;;;;;6264702;27;85138;-62
2022/04/29 09:04:21;;;;;;;15.60;7.40;;;24.60;48.10;;;;;;6262095;27;81148;-61
2022/04/29 09:07:22;;;;;;;16.58;8.40;;;24.60;48.20;;;;;;6257657;27;81672;-65
2022/04/29 09:10:22;;;;;;;12.55;7.25;;;24.60;48.30;;;;;;6258600;27;81757;-64
2022/04/29 09:13:24;;;;;;;12.93;7.47;;;24.60;48.40;;;;;;6270285;27;80471;-62
2022/04/29 09:16:25;;;;;;;13.10;7.45;;;24.60;48.90;;;;;;6265991;27;82425;-63
2022/04/29 09:19:26;;;;;;;12.45;7.28;;;24.60;48.60;;;;;;6267088;27;83287;-61
2022/04/29 09:22:30;;;;;;;22.70;7.63;;;24.50;48.20;;;;;;6261172;27;80572;-60
2022/04/29 09:25:38;;;;;;;15.60;8.25;;;24.40;46.40;;;;;;6276548;27;81396;-62
2022/04/29 09:29:11;;;;;;;13.77;8.00;;;24.40;45.90;;;;;;6279891;27;80626;-62
2022/04/29 09:32:14;;;;;;;12.57;7.50;;;24.30;41.60;;;;;;6265869;27;83538;-61
2022/04/29 09:35:45;;;;;;;17.02;7.93;;;24.30;42.00;;;;;;6265718;27;80619;-62
2022/04/29 09:39:30;;;;;;;16.50;6.93;;;24.20;40.30;;;;;;6274623;27;80956;-61
2022/04/29 09:42:10;;;;;;;13.52;6.80;;;24.30;42.10;;;;;;6258582;27;80244;-62
2022/04/29 09:45:10;;;;;;;12.70;6.40;;;24.10;41.00;;;;;;6280499;27;80637;-61
2022/04/29 09:48:11;;;;;;;15.18;7.60;;;24.10;39.20;;;;;;6284392;27;80367;-61
2022/04/29 09:51:11;;;;;;;20.73;7.97;;;23.90;37.60;;;;;;6284210;27;80521;-60
2022/04/29 09:54:12;;;;;;;15.60;7.93;;;23.80;38.00;;;;;;6284112;27;80817;-62
2022/04/29 09:57:12;;;;;;;11.95;7.40;;;23.80;37.50;;;;;;6259498;27;80724;-60
2022/04/29 10:00:13;;;;;;;13.98;6.45;;;23.80;38.70;;;;;;6258744;27;80373;-61
2022/04/29 10:03:14;;;;;;;12.35;6.72;;;23.90;38.80;;;;;;6260309;27;80255;-61
2022/04/29 10:06:14;;;;;;;16.70;6.65;;;23.80;40.00;;;;;;6273446;27;81319;-60
2022/04/29 10:09:15;;;;;;;11.18;6.55;;;23.90;40.20;;;;;;6263658;27;80612;-61
2022/04/29 10:12:16;;;;;;;11.38;6.20;;;23.90;39.80;;;;;;6274629;27;81798;-61
2022/04/29 10:15:22;;;;;;;14.85;6.97;;;23.90;39.60;;;;;;6257491;27;81302;-61
2022/04/29 10:22:03;;;;;;;10.32;5.65;;;23.90;41.40;;;;;;6262746;27;80269;-61
2022/04/29 10:25:03;;;;;;;11.93;5.80;;;23.80;40.40;;;;;;6255758;27;81367;-61
2022/04/29 10:28:04;;;;;;;17.23;6.65;;;23.90;39.70;;;;;;6260433;27;80686;-61
2022/04/29 10:31:09;;;;;;;14.63;6.45;;;23.80;39.60;;;;;;6260272;27;80651;-61
2022/04/29 10:34:10;;;;;;;10.07;5.70;;;23.90;39.00;;;;;;6275318;27;81379;-61
2022/04/29 10:37:11;;;;;;;11.55;6.28;;;23.80;39.00;;;;;;6280223;27;80229;-60
2022/04/29 10:40:11;;;;;;;10.70;5.60;;;23.80;39.50;;;;;;6270612;27;80475;-62
2022/04/29 10:43:14;;;;;;;10.15;5.40;;;23.90;39.20;;;;;;6283679;27;80379;-61
2022/04/29 10:46:15;;;;;;;13.40;5.28;;;23.90;39.20;;;;;;6263674;27;80653;-70
2022/04/29 10:49:20;;;;;;;12.32;5.45;;;23.90;38.90;;;;;;6272135;27;88091;-61
2022/04/29 10:52:39;;;;;;;14.70;6.80;;;23.90;39.30;;;;;;6254358;27;80164;-61
2022/04/29 10:55:41;;;;;;;9.75;5.00;;;23.90;39.20;;;;;;6256704;27;80308;-61
2022/04/29 10:59:07;;;;;;;9.45;4.55;;;24.00;39.10;;;;;;6253076;27;80235;-61
2022/04/29 11:02:08;;;;;;;7.47;4.38;;;23.90;39.70;;;;;;6281396;27;80182;-61
2022/04/29 11:05:09;;;;;;;12.55;4.82;;;24.00;39.70;;;;;;6281147;27;80629;-61
2022/04/29 11:08:09;;;;;;;9.18;4.80;;;24.00;39.30;;;;;;6278920;27;82965;-61
2022/04/29 11:11:10;;;;;;;8.43;4.60;;;24.10;39.30;;;;;;6266217;27;80661;-61
2022/04/29 11:14:37;;;;;;;8.43;5.13;;;24.00;39.10;;;;;;6245932;27;80283;-60
2022/04/29 11:17:55;;;;;;;12.10;5.10;;;24.00;39.10;;;;;;6274484;27;81836;-61
2022/04/29 11:20:56;;;;;;;11.93;4.88;;;24.10;38.90;;;;;;6275381;27;82508;-61
2022/04/29 11:27:17;;;;;;;11.15;4.53;;;24.00;39.80;;;;;;6263285;27;80806;-61
2022/04/29 11:30:19;;;;;;;12.38;4.68;;;24.00;40.50;;;;;;6267538;27;82640;-61
2022/04/29 11:33:27;;;;;;;8.70;4.40;;;24.00;40.00;;;;;;6261458;27;80427;-61
2022/04/29 11:36:28;;;;;;;12.35;4.70;;;24.10;40.40;;;;;;6263205;27;81076;-61
2022/04/29 11:39:28;;;;;;;7.65;4.28;;;24.10;40.70;;;;;;6261779;27;80246;-61
2022/04/29 11:42:29;;;;;;;7.38;4.75;;;24.10;40.70;;;;;;6267554;27;80376;-61
2022/04/29 11:45:30;;;;;;;12.20;4.53;;;24.20;41.00;;;;;;6264437;27;80464;-61
2022/04/29 11:48:34;;;;;;;5.93;3.95;;;24.20;41.20;;;;;;6267093;27;84140;-60
2022/04/29 11:51:35;;;;;;;9.25;4.90;;;24.30;41.00;;;;;;6267143;27;80548;-60
2022/04/29 11:54:36;;;;;;;12.18;4.07;;;24.30;41.20;;;;;;6270962;27;80506;-60
2022/04/29 11:57:38;;;;;;;8.52;4.22;;;24.30;41.00;;;;;;6271110;27;81536;-61
2022/04/29 12:00:39;;;;;;;7.85;4.43;;;24.40;40.70;;;;;;6264345;27;80779;-61
2022/04/29 12:03:39;;;;;;;9.32;4.10;;;24.40;41.30;;;;;;6270827;27;80609;-61
2022/04/29 12:06:40;;;;;;;10.02;5.47;;;24.40;39.80;;;;;;6268795;27;80119;-61
2022/04/29 12:09:40;;;;;;;11.38;4.95;;;24.40;40.60;;;;;;6261615;27;80662;-62
2022/04/29 12:12:41;;;;;;;6.10;4.10;;;24.40;40.30;;;;;;6269976;27;80250;-62
2022/04/29 12:15:44;;;;;;;7.18;4.35;;;24.40;40.00;;;;;;6277997;27;80426;-60
2022/04/29 12:18:45;;;;;;;9.82;4.35;;;24.40;40.00;;;;;;6260472;27;83917;-61
2022/04/29 12:21:45;;;;;;;6.53;3.78;;;24.40;40.30;;;;;;6269799;27;80384;-60
2022/04/29 12:24:46;;;;;;;8.32;4.40;;;24.40;40.00;;;;;;6274974;27;80509;-61
2022/04/29 12:27:46;;;;;;;10.40;4.40;;;24.40;39.90;;;;;;6259497;27;80455;-61
2022/04/29 12:37:31;;;;;;;8.98;3.92;;;24.40;39.10;;;;;;6283675;27;87732;-61
2022/04/29 12:40:32;;;;;;;6.97;4.40;;;24.50;39.10;;;;;;6282032;27;80700;-61
2022/04/29 12:43:32;;;;;;;8.75;3.90;;;24.40;38.50;;;;;;6276102;27;80448;-62
2022/04/29 12:46:33;;;;;;;8.23;3.67;;;24.50;39.10;;;;;;6259853;27;81566;-62
2022/04/29 12:49:33;;;;;;;9.32;3.97;;;24.50;39.80;;;;;;6260064;27;80353;-61
2022/04/29 12:52:34;;;;;;;8.38;4.18;;;24.50;39.90;;;;;;6259962;27;80394;-62
2022/04/29 12:55:35;;;;;;;6.28;3.90;;;24.60;40.10;;;;;;6259317;27;85856;-61
2022/04/29 12:58:42;;;;;;;6.53;3.58;;;24.60;40.00;;;;;;6259998;27;80980;-62
2022/04/29 13:01:43;;;;;;;6.57;3.80;;;24.60;40.10;;;;;;6260229;27;81471;-62
2022/04/29 13:04:59;;;;;;;5.25;3.60;;;24.50;39.70;;;;;;6283325;27;82129;-61
2022/04/29 13:08:03;;;;;;;8.43;3.70;;;24.60;39.90;;;;;;6284657;27;80198;-60
2022/04/29 13:11:05;;;;;;;8.65;4.03;;;24.50;39.30;;;;;;6283123;27;81287;-61
2022/04/29 13:14:06;;;;;;;5.60;3.75;;;24.50;39.40;;;;;;6265483;27;80690;-61
2022/04/29 13:17:06;;;;;;;6.97;3.95;;;24.50;39.50;;;;;;6260736;27;80416;-60
2022/04/29 13:20:08;;;;;;;7.63;3.60;;;24.50;39.30;;;;;;6284436;27;81225;-61
2022/04/29 13:23:10;;;;;;;10.10;3.90;;;24.50;38.80;;;;;;6273473;27;82815;-60
2022/04/29 13:26:13;;;;;;;6.75;3.38;;;24.50;39.10;;;;;;6260843;27;82935;-61
2022/04/29 13:29:15;;;;;;;7.82;3.83;;;24.50;39.00;;;;;;6266634;27;80628;-61
2022/04/29 13:32:16;;;;;;;5.40;3.40;;;24.40;38.80;;;;;;6259200;27;81120;-60
2022/04/29 13:35:16;;;;;;;7.50;3.72;;;24.40;38.50;;;;;;6258945;27;80276;-60
2022/04/29 13:38:17;;;;;;;5.22;3.30;;;24.40;38.10;;;;;;6262489;27;82028;-61
2022/04/29 13:41:17;;;;;;;5.90;3.83;;;24.40;37.80;;;;;;6273158;27;80625;-61
2022/04/29 13:44:18;;;;;;;8.65;3.53;;;24.40;36.70;;;;;;6268137;27;81618;-61
2022/04/29 13:47:19;;;;;;;9.02;3.80;;;24.30;36.10;;;;;;6258715;27;80675;-61
2022/04/29 13:50:19;;;;;;;8.93;3.78;;;24.30;36.40;;;;;;6278428;27;80303;-60
2022/04/29 13:53:20;;;;;;;4.40;3.08;;;24.30;36.30;;;;;;6283911;27;80125;-61
2022/04/29 13:56:20;;;;;;;7.97;3.05;;;24.30;36.40;;;;;;6281616;27;81925;-63
2022/04/29 13:59:23;;;;;;;5.55;3.63;;;24.30;36.10;;;;;;6283782;27;80179;-61
2022/04/29 14:02:25;;;;;;;6.97;3.17;;;24.30;36.50;;;;;;6245375;28;81856;-61
2022/04/29 14:05:28;;;;;;;5.70;3.08;;;24.30;37.00;;;;;;6258068;27;80590;-61
2022/04/29 14:08:28;;;;;;;7.95;3.85;;;24.30;37.80;;;;;;6259018;27;80267;-61
2022/04/29 14:11:29;;;;;;;4.82;2.75;;;24.30;38.00;;;;;;6260284;27;80290;-61
2022/04/29 14:14:29;;;;;;;5.55;3.45;;;24.30;37.70;;;;;;6258518;27;83158;-61
2022/04/29 14:17:30;;;;;;;5.03;3.10;;;24.30;37.80;;;;;;6277695;27;80516;-61
2022/04/29 14:20:30;;;;;;;6.30;3.42;;;24.30;37.70;;;;;;6260934;27;80884;-62
2022/04/29 14:23:31;;;;;;;4.38;2.80;;;24.30;37.70;;;;;;6257219;27;81392;-61
2022/04/29 14:26:33;;;;;;;7.32;2.90;;;24.30;38.10;;;;;;6257638;27;80674;-61
2022/04/29 14:29:33;;;;;;;5.43;2.78;;;24.30;38.20;;;;;;6269845;27;80484;-62
2022/04/29 14:32:34;;;;;;;7.68;3.50;;;24.30;38.20;;;;;;6268929;27;80562;-61
2022/04/29 14:35:34;;;;;;;5.00;2.78;;;24.30;37.30;;;;;;6275068;27;80592;-60
2022/04/29 14:38:35;;;;;;;4.82;3.13;;;24.30;37.50;;;;;;6272939;27;81257;-61
2022/04/29 14:41:36;;;;;;;14.10;3.35;;;24.30;37.50;;;;;;6265629;27;80612;-63
2022/04/29 14:44:39;;;;;;;7.13;3.13;;;24.30;37.50;;;;;;6265859;27;80648;-61
2022/04/29 14:47:39;;;;;;;6.15;3.20;;;24.30;37.80;;;;;;6259745;27;80004;-61
2022/04/29 14:50:40;;;;;;;8.15;2.90;;;24.30;37.60;;;;;;6256186;27;81439;-62
2022/04/29 14:53:40;;;;;;;5.32;2.80;;;24.30;37.60;;;;;;6276014;27;81308;-59
2022/04/29 14:56:41;;;;;;;6.93;3.13;;;24.40;36.90;;;;;;6275719;27;80290;-60
2022/04/29 14:59:41;;;;;;;5.85;2.90;;;24.30;37.60;;;;;;6275053;27;80810;-61
2022/04/29 15:02:42;;;;;;;6.70;2.78;;;24.30;37.70;;;;;;6274535;27;80528;-61
2022/04/29 15:05:42;;;;;;;8.45;2.78;;;24.40;38.70;;;;;;6269019;27;80769;-60
2022/04/29 15:08:43;;;;;;;8.98;2.83;;;24.40;38.90;;;;;;6274588;27;80378;-63
2022/04/29 15:18:22;;;;;;;5.30;2.38;;;24.40;40.00;;;;;;6286987;27;79966;-59
2022/04/29 15:21:24;;;;;;;6.45;2.40;;;24.40;40.60;;;;;;6277532;27;81237;-60
2022/04/29 15:24:24;;;;;;;6.15;2.75;;;24.40;40.90;;;;;;6263897;27;80571;-60
2022/04/29 15:27:26;;;;;;;6.97;2.67;;;24.40;41.40;;;;;;6260339;27;81650;-60
2022/04/29 15:30:27;;;;;;;4.38;2.88;;;24.40;41.30;;;;;;6264590;27;80423;-60
2022/04/29 15:33:28;;;;;;;4.15;2.83;;;24.40;41.40;;;;;;6278638;27;80566;-61
2022/04/29 15:36:29;;;;;;;4.68;2.65;;;24.40;41.70;;;;;;6269450;27;80225;-60
2022/04/29 15:39:29;;;;;;;3.60;2.30;;;24.40;42.00;;;;;;6272988;27;80309;-61
2022/04/29 15:42:30;;;;;;;6.22;2.50;;;24.40;42.20;;;;;;6266458;27;82298;-61
2022/04/29 15:45:30;;;;;;;3.72;2.42;;;24.40;42.50;;;;;;6264981;27;80605;-62
2022/04/29 15:48:31;;;;;;;4.00;2.05;;;24.40;42.70;;;;;;6259842;27;80384;-61
2022/04/29 15:51:31;;;;;;;5.95;2.47;;;24.40;42.80;;;;;;6272079;27;80195;-61
2022/04/29 15:54:32;;;;;;;3.30;2.28;;;24.40;43.00;;;;;;6261093;27;80384;-62
2022/04/29 15:57:32;;;;;;;4.55;2.55;;;24.40;43.20;;;;;;6267990;27;81928;-63
2022/04/29 16:00:33;;;;;;;3.72;2.45;;;24.40;43.10;;;;;;6272840;27;81364;-62
2022/04/29 16:03:33;;;;;;;5.13;2.42;;;24.40;43.00;;;;;;6260407;27;81495;-62
2022/04/29 16:06:34;;;;;;;3.25;2.08;;;24.40;43.60;;;;;;6260819;27;80215;-62
2022/04/29 16:09:34;;;;;;;8.20;2.55;;;24.40;43.20;;;;;;6267670;27;80334;-62
2022/04/29 16:12:35;;;;;;;5.15;2.42;;;24.40;43.30;;;;;;6276213;27;80334;-63
2022/04/29 16:15:35;;;;;;;3.47;2.22;;;24.40;43.40;;;;;;6261209;27;80791;-63
2022/04/29 16:21:55;;;;;;;4.88;2.20;;;24.50;43.70;;;;;;6271300;27;80729;-61
2022/04/29 16:28:16;;;;;;;6.47;2.95;;;24.40;43.80;;;;;;6264572;27;80464;-61
2022/04/29 16:31:18;;;;;;;10.07;2.80;;;24.40;44.20;;;;;;6260241;27;80606;-62
2022/04/29 16:34:19;;;;;;;8.60;2.63;;;24.40;44.40;;;;;;6260296;27;80371;-62
2022/04/29 16:37:19;;;;;;;3.58;2.20;;;24.30;44.80;;;;;;6260082;27;80635;-62